createdAt,value
2023-04-15T00:01:34.751Z,93629.44
2023-04-15T00:16:36.650Z,93626.50
2023-04-15T00:31:38.572Z,93632.22
2023-04-15T00:46:41.629Z,93623.69
2023-04-15T01:01:44.841Z,93625.00
2023-04-15T01:16:47.191Z,93642.84
2023-04-15T01:31:53.143Z,93627.19
2023-04-15T01:46:55.340Z,93631.06
2023-04-15T02:01:57.647Z,93647.91
2023-04-15T02:17:07.277Z,93631.25
2023-04-15T02:32:09.260Z,93633.56
2023-04-15T02:47:11.859Z,93637.41
2023-04-15T03:02:13.875Z,93645.59
2023-04-15T03:17:16.050Z,93667.56
2023-04-15T03:32:18.399Z,93672.63
2023-04-15T03:47:20.375Z,93702.03
2023-04-15T04:02:23.441Z,93711.72
2023-04-15T04:17:25.707Z,93714.03
2023-04-15T04:32:28.123Z,93709.34
2023-04-15T04:47:30.504Z,93721.66
2023-04-15T05:02:32.893Z,93750.00
2023-04-15T05:17:35.545Z,93776.75
2023-04-15T05:32:37.529Z,93776.50
2023-04-15T05:47:39.626Z,93769.31
2023-04-15T06:02:42.063Z,93777.34
2023-04-15T06:17:44.150Z,93797.22
2023-04-15T06:32:46.594Z,93812.81
2023-04-15T06:47:48.708Z,93828.69
2023-04-15T07:02:51.677Z,93822.69
2023-04-15T07:17:53.695Z,93824.00
2023-04-15T07:32:56.251Z,93828.06
2023-04-15T07:47:58.375Z,93823.34
2023-04-15T08:03:00.458Z,93852.72
2023-04-15T08:18:02.677Z,93846.72
2023-04-15T08:33:07.604Z,93837.69
2023-04-15T08:48:14.213Z,93835.41
2023-04-15T09:03:17.852Z,93811.56
2023-04-15T09:18:36.478Z,93799.34
2023-04-15T09:33:55.433Z,93802.53
2023-04-15T09:49:11.506Z,93737.66
2023-04-15T10:04:13.939Z,93803.78
2023-04-15T10:19:19.428Z,93774.84
2023-04-15T10:34:22.612Z,93766.59
2023-04-15T10:49:26.283Z,93754.91
2023-04-15T11:04:52.789Z,93747.16
2023-04-15T11:19:55.032Z,93741.31
2023-04-15T11:34:57.011Z,93740.16
2023-04-15T11:50:17.861Z,93736.56
2023-04-15T12:05:19.916Z,93740.66
2023-04-15T12:20:26.251Z,93741.44
2023-04-15T12:35:28.157Z,93747.34
2023-04-15T12:50:30.056Z,93760.66
2023-04-15T13:05:32.349Z,93752.03
2023-04-15T13:20:34.289Z,93748.88
2023-04-15T13:35:36.274Z,93750.44
2023-04-15T13:50:39.572Z,93729.72
2023-04-15T14:05:43.151Z,93714.91
2023-04-15T14:20:45.166Z,93718.19
2023-04-15T14:35:47.050Z,93715.44
2023-04-15T14:50:49.161Z,93712.78
2023-04-15T15:05:51.325Z,93715.25
2023-04-15T15:20:53.456Z,93694.41
2023-04-15T15:35:55.416Z,93701.66
2023-04-15T15:50:57.374Z,93709.94
2023-04-15T16:05:59.233Z,93716.69
2023-04-15T16:21:01.242Z,93708.50
2023-04-15T16:36:03.743Z,93704.38
2023-04-15T16:51:05.982Z,93710.00
2023-04-15T17:06:07.894Z,93718.44
2023-04-15T17:21:09.765Z,93733.94
2023-04-15T17:36:11.909Z,93748.97
2023-04-15T17:51:13.904Z,93775.13
2023-04-15T18:06:17.079Z,93798.19
2023-04-15T18:21:18.982Z,93801.50
2023-04-15T18:36:20.885Z,93807.78
2023-04-15T18:51:22.854Z,93807.66
2023-04-15T19:06:25.164Z,93808.31
2023-04-15T19:21:27.991Z,93812.09
2023-04-15T19:36:29.976Z,93807.56
2023-04-15T19:51:32.022Z,93818.41
2023-04-15T20:06:34.151Z,93829.44
2023-04-15T20:21:36.531Z,93837.44
2023-04-15T20:36:38.459Z,93850.97
2023-04-15T20:51:40.370Z,93858.59
2023-04-15T21:06:42.308Z,93856.94
2023-04-15T21:21:44.174Z,93862.00
2023-04-15T21:36:46.138Z,93862.22
2023-04-15T21:51:48.219Z,93886.41
2023-04-15T22:06:50.139Z,93880.53
2023-04-15T22:21:52.215Z,93903.56
2023-04-15T22:36:54.221Z,93887.88
2023-04-15T22:51:56.154Z,93874.31
2023-04-15T23:06:58.090Z,93863.72
2023-04-15T23:21:59.961Z,93871.78
2023-04-15T23:37:01.901Z,93868.16
2023-04-15T23:52:04.239Z,93862.53
